Terminal Aerodrome Forecast
Issued by NWS

Current Version | Previous Version | Text Only | Print | Product List | Glossary On
Versions: 1 2 3 4 5 6 7 8 9 10 11 12 13
000
FTUS44 KEPZ 142300
TAFDMN
TAF
KDMN 142329Z 1500/1524 09011KT P6SM BKN050 BKN140
     FM150400 07008KT P6SM BKN040 BKN140
     FM151900 14008KT P6SM SCT050 SCT140 BKN200=

USA.gov is the U.S. government's official web portal to all federal, state and local government web resources and services.